Terminal Aerodrome Forecast
Issued by NWS Burlington, VT

Home | Current Version | Previous Version | Text Only | Print | Product List | Glossary On
Versions: 1 2 3 4 5 6 7 8 9 10 11 12 13
000
FTUS41 KBTV 010522
TAFBTV
TAF
KBTV 010522Z 0106/0206 36006KT P6SM OVC060
     FM011400 34010G20KT P6SM BKN030 OVC050
     FM012000 34010G20KT P6SM -RA OVC025
     FM020200 34010G20KT 4SM -RASN BR OVC020=

USA.gov is the U.S. government's official web portal to all federal, state and local government web resources and services.